createdAt,value
2022-10-17T00:00:47.021Z,14.09
2022-10-17T00:03:36.560Z,14.13
2022-10-17T00:06:10.657Z,14.15
2022-10-17T00:08:43.526Z,14.12
2022-10-17T00:11:19.592Z,14.12
2022-10-17T00:13:56.929Z,14.14
2022-10-17T00:16:30.280Z,14.17
2022-10-17T00:19:02.683Z,14.19
2022-10-17T00:21:34.880Z,14.18
2022-10-17T00:24:07.960Z,14.17
2022-10-17T00:26:39.551Z,14.14
2022-10-17T00:29:11.312Z,14.12
2022-10-17T00:31:43.012Z,14.06
2022-10-17T00:34:16.292Z,13.95
2022-10-17T00:36:47.797Z,13.86
2022-10-17T00:39:20.180Z,13.83
2022-10-17T00:41:51.859Z,13.81
2022-10-17T00:44:59.919Z,13.78
2022-10-17T00:47:32.123Z,13.67
2022-10-17T00:50:05.409Z,13.63
2022-10-17T00:52:43.344Z,13.63
2022-10-17T00:55:19.927Z,13.62
2022-10-17T00:57:52.643Z,13.59
2022-10-17T01:00:28.229Z,13.57
2022-10-17T01:02:59.752Z,13.59
2022-10-17T01:05:31.879Z,13.59
2022-10-17T01:08:04.180Z,13.59
2022-10-17T01:10:44.955Z,13.58
2022-10-17T01:13:23.157Z,13.56
2022-10-17T01:16:07.775Z,13.55
2022-10-17T01:18:57.475Z,13.56
2022-10-17T01:21:45.758Z,13.60
2022-10-17T01:24:37.017Z,13.63
2022-10-17T01:27:30.620Z,13.66
2022-10-17T01:30:22.882Z,13.72
2022-10-17T01:33:01.964Z,13.75
2022-10-17T01:35:39.550Z,13.78
2022-10-17T01:38:15.966Z,13.80
2022-10-17T01:40:54.844Z,13.83
2022-10-17T01:43:33.946Z,13.84
2022-10-17T01:46:12.958Z,13.83
2022-10-17T01:48:47.099Z,13.83
2022-10-17T01:51:22.594Z,13.83
2022-10-17T01:54:00.674Z,13.82
2022-10-17T01:56:35.479Z,13.77
2022-10-17T01:59:12.097Z,13.75
2022-10-17T02:01:45.457Z,13.76
2022-10-17T02:04:18.782Z,13.77
2022-10-17T02:06:50.344Z,13.77
2022-10-17T02:09:25.454Z,13.76
2022-10-17T02:12:13.378Z,13.74
2022-10-17T02:15:00.277Z,13.69
2022-10-17T02:17:44.629Z,13.60
2022-10-17T02:20:27.610Z,13.54
2022-10-17T02:23:07.269Z,13.49
2022-10-17T02:25:46.400Z,13.39
2022-10-17T02:28:25.643Z,13.29
2022-10-17T02:31:07.669Z,13.20
2022-10-17T02:33:46.415Z,13.12
2022-10-17T02:36:29.452Z,13.04
2022-10-17T02:39:02.728Z,13.00
2022-10-17T02:41:37.221Z,12.94
2022-10-17T02:44:09.859Z,12.88
2022-10-17T02:46:46.495Z,12.84
2022-10-17T02:49:20.758Z,12.86
2022-10-17T02:51:59.851Z,12.89
2022-10-17T02:54:39.916Z,12.88
2022-10-17T02:57:16.330Z,12.84
2022-10-17T02:59:48.758Z,12.82
2022-10-17T03:02:23.142Z,12.82
2022-10-17T03:04:54.703Z,12.84
2022-10-17T03:07:26.273Z,12.89
2022-10-17T03:09:57.805Z,12.94
2022-10-17T03:12:31.252Z,12.99
2022-10-17T03:15:03.242Z,13.05
2022-10-17T03:17:35.006Z,13.07
2022-10-17T03:20:12.284Z,13.08
2022-10-17T03:22:45.492Z,13.09
2022-10-17T03:25:23.408Z,13.08
2022-10-17T03:27:55.156Z,13.06
2022-10-17T03:30:26.669Z,13.04
2022-10-17T03:33:00.843Z,13.01
2022-10-17T03:35:32.477Z,13.00
2022-10-17T03:38:04.130Z,12.98
2022-10-17T03:40:35.678Z,12.94
2022-10-17T03:43:08.128Z,12.87
2022-10-17T03:45:39.642Z,12.85
2022-10-17T03:48:11.296Z,12.81
2022-10-17T03:50:42.997Z,12.74
2022-10-17T03:53:15.320Z,12.69
2022-10-17T03:55:46.953Z,12.66
2022-10-17T03:58:18.533Z,12.64
2022-10-17T04:00:50.129Z,12.61
2022-10-17T04:03:23.313Z,12.59
2022-10-17T04:05:54.862Z,12.61
2022-10-17T04:08:26.706Z,12.62
2022-10-17T04:11:02.216Z,12.62
2022-10-17T04:13:34.407Z,12.61
2022-10-17T04:16:07.989Z,12.62
2022-10-17T04:18:39.551Z,12.63
2022-10-17T04:21:12.397Z,12.61
2022-10-17T04:23:44.731Z,12.60
2022-10-17T04:26:16.403Z,12.59
2022-10-17T04:28:48.064Z,12.57
2022-10-17T04:31:20.003Z,12.53
2022-10-17T04:33:53.116Z,12.46
2022-10-17T04:36:24.792Z,12.40
2022-10-17T04:38:56.403Z,12.36
2022-10-17T04:41:28.003Z,12.33
2022-10-17T04:43:59.665Z,12.30
2022-10-17T04:46:31.342Z,12.27
2022-10-17T04:49:02.940Z,12.26
2022-10-17T04:51:34.539Z,12.27
2022-10-17T04:54:06.982Z,12.30
2022-10-17T04:56:38.735Z,12.25
2022-10-17T04:59:11.125Z,12.18
2022-10-17T05:01:42.944Z,12.12
2022-10-17T05:04:15.291Z,12.07
2022-10-17T05:06:46.763Z,11.99
2022-10-17T05:09:18.357Z,11.95
2022-10-17T05:11:50.054Z,11.92
2022-10-17T05:14:22.515Z,11.90
2022-10-17T05:16:54.027Z,11.92
2022-10-17T05:19:25.935Z,11.92
2022-10-17T05:21:58.453Z,11.92
2022-10-17T05:24:30.889Z,11.91
2022-10-17T05:27:02.892Z,11.89
2022-10-17T05:29:35.304Z,11.88
2022-10-17T05:32:07.775Z,11.86
2022-10-17T05:34:40.198Z,11.83
2022-10-17T05:37:11.740Z,11.79
2022-10-17T05:39:45.070Z,11.78
2022-10-17T05:42:18.281Z,11.80
2022-10-17T05:44:50.001Z,11.82
2022-10-17T05:47:21.606Z,11.87
2022-10-17T05:49:53.303Z,11.95
2022-10-17T05:52:25.628Z,12.02
2022-10-17T05:54:57.331Z,12.12
2022-10-17T05:57:29.626Z,12.18
2022-10-17T06:00:05.052Z,12.22
2022-10-17T06:02:40.472Z,12.28
2022-10-17T06:05:32.201Z,12.38
2022-10-17T06:08:58.033Z,12.49
2022-10-17T06:11:46.493Z,12.63
2022-10-17T06:14:18.125Z,12.73
2022-10-17T06:16:49.780Z,12.87
2022-10-17T06:19:22.622Z,12.97
2022-10-17T06:21:55.651Z,13.05
2022-10-17T06:24:27.460Z,13.10
2022-10-17T06:26:59.895Z,13.13
2022-10-17T06:29:31.539Z,13.17
2022-10-17T06:32:04.026Z,13.27
2022-10-17T06:34:35.793Z,13.39
2022-10-17T06:37:08.277Z,13.49
2022-10-17T06:39:39.960Z,13.57
2022-10-17T06:42:13.382Z,13.68
2022-10-17T06:44:44.853Z,13.78
2022-10-17T06:47:19.242Z,13.87
2022-10-17T06:49:51.802Z,13.99
2022-10-17T06:52:23.533Z,14.11
2022-10-17T06:54:55.389Z,14.21
2022-10-17T06:57:27.492Z,14.33
2022-10-17T06:59:59.344Z,14.45
2022-10-17T07:02:31.282Z,14.62
2022-10-17T07:05:03.791Z,14.78
2022-10-17T07:07:38.855Z,14.93
2022-10-17T07:10:13.597Z,15.09
2022-10-17T07:12:46.668Z,15.26
2022-10-17T07:15:18.405Z,15.46
2022-10-17T07:17:52.308Z,15.63
2022-10-17T07:20:24.152Z,15.82
2022-10-17T07:22:55.886Z,16.01
2022-10-17T07:25:28.509Z,16.18
2022-10-17T07:28:00.215Z,16.35
2022-10-17T07:30:31.877Z,16.52
2022-10-17T07:33:03.593Z,16.67
2022-10-17T07:35:35.225Z,16.82
2022-10-17T07:38:06.851Z,16.95
2022-10-17T07:40:38.712Z,17.09
2022-10-17T07:43:11.224Z,17.20
2022-10-17T07:45:43.559Z,17.30
2022-10-17T07:48:15.180Z,17.39
2022-10-17T07:50:47.080Z,17.50
2022-10-17T07:53:19.406Z,17.65
2022-10-17T07:55:51.487Z,17.79
2022-10-17T07:58:23.068Z,17.90
2022-10-17T08:00:54.726Z,18.01
2022-10-17T08:03:26.523Z,18.13
2022-10-17T08:06:04.093Z,18.23
2022-10-17T08:08:36.406Z,18.34
2022-10-17T08:11:10.317Z,18.46
2022-10-17T08:13:42.793Z,18.57
2022-10-17T08:16:15.029Z,18.69
2022-10-17T08:18:46.640Z,18.80
2022-10-17T08:21:18.176Z,18.92
2022-10-17T08:23:50.651Z,19.03
2022-10-17T08:26:23.006Z,19.14
2022-10-17T08:28:54.781Z,19.26
2022-10-17T08:31:27.364Z,19.37
2022-10-17T08:34:00.638Z,19.46
2022-10-17T08:36:32.150Z,19.51
2022-10-17T08:39:03.893Z,19.54
2022-10-17T08:42:00.684Z,19.57
2022-10-17T08:44:47.741Z,19.65
2022-10-17T08:47:28.040Z,19.74
2022-10-17T08:50:03.272Z,19.84
2022-10-17T08:52:41.352Z,19.89
2022-10-17T08:55:20.947Z,19.95
2022-10-17T08:57:52.611Z,19.99
2022-10-17T09:00:29.324Z,20.04
2022-10-17T09:03:17.074Z,20.08
2022-10-17T09:05:55.367Z,20.15
2022-10-17T09:08:44.151Z,20.21
2022-10-17T09:11:28.552Z,20.31
2022-10-17T09:14:14.155Z,20.34
2022-10-17T09:17:02.442Z,20.40
2022-10-17T09:19:37.527Z,20.45
2022-10-17T09:22:16.086Z,20.48
2022-10-17T09:24:50.907Z,20.50
2022-10-17T09:27:26.487Z,20.54
2022-10-17T09:30:26.859Z,20.62
2022-10-17T09:32:58.800Z,20.71
2022-10-17T09:35:31.384Z,20.78
2022-10-17T09:38:03.203Z,20.85
2022-10-17T09:40:37.779Z,20.95
2022-10-17T09:43:12.598Z,21.02
2022-10-17T09:45:57.135Z,21.09
2022-10-17T09:48:33.865Z,21.16
2022-10-17T09:51:15.107Z,21.25
2022-10-17T09:54:03.831Z,21.35
2022-10-17T09:57:02.460Z,21.42
2022-10-17T09:59:36.608Z,21.50
2022-10-17T10:02:21.000Z,21.55
2022-10-17T10:05:06.467Z,21.61
2022-10-17T10:07:40.412Z,21.62
2022-10-17T10:10:30.250Z,21.66
2022-10-17T10:13:17.418Z,21.71
2022-10-17T10:15:50.827Z,21.74
2022-10-17T10:18:37.154Z,21.85
2022-10-17T10:21:12.974Z,21.95
2022-10-17T10:23:46.750Z,21.94
2022-10-17T10:26:24.818Z,21.89
2022-10-17T10:29:00.099Z,21.88
2022-10-17T10:31:39.006Z,21.90
2022-10-17T10:34:35.813Z,21.92
2022-10-17T10:37:18.698Z,21.96
2022-10-17T10:39:52.909Z,21.98
2022-10-17T10:42:30.238Z,21.98
2022-10-17T10:45:23.693Z,22.00
2022-10-17T10:48:04.125Z,22.06
2022-10-17T10:50:44.392Z,22.16
2022-10-17T10:53:34.768Z,22.22
2022-10-17T10:56:13.527Z,22.39
2022-10-17T10:58:55.218Z,22.52
2022-10-17T11:01:36.343Z,22.68
2022-10-17T11:04:22.128Z,22.83
2022-10-17T11:07:00.211Z,22.95
2022-10-17T11:09:43.830Z,23.06
2022-10-17T11:12:20.024Z,23.15
2022-10-17T11:14:58.835Z,23.24
2022-10-17T11:17:38.086Z,23.31
2022-10-17T11:20:26.105Z,23.34
2022-10-17T11:23:24.874Z,23.38
2022-10-17T11:26:05.178Z,23.41
2022-10-17T11:28:36.980Z,23.46
2022-10-17T11:31:14.682Z,23.55
2022-10-17T11:33:50.084Z,23.65
2022-10-17T11:36:27.296Z,23.71
2022-10-17T11:39:02.713Z,23.77
2022-10-17T11:41:40.604Z,23.82
2022-10-17T11:44:20.917Z,23.86
2022-10-17T11:46:55.820Z,23.94
2022-10-17T11:49:34.212Z,24.03
2022-10-17T11:52:43.887Z,24.13
2022-10-17T11:55:18.847Z,24.24
2022-10-17T11:58:02.939Z,24.34
2022-10-17T12:01:02.567Z,24.46
2022-10-17T12:03:49.495Z,24.59
2022-10-17T12:06:32.638Z,24.69
2022-10-17T12:09:11.320Z,24.75
2022-10-17T12:11:55.964Z,24.77
2022-10-17T12:14:48.490Z,24.79
2022-10-17T12:17:38.918Z,24.81
2022-10-17T12:20:34.705Z,24.84
2022-10-17T12:23:24.771Z,24.84
2022-10-17T12:26:01.502Z,24.86
2022-10-17T12:28:47.782Z,24.89
2022-10-17T12:31:34.139Z,24.93
2022-10-17T12:34:06.897Z,24.92
2022-10-17T12:36:42.357Z,24.90
2022-10-17T12:39:46.792Z,24.80
2022-10-17T12:42:46.694Z,24.66
2022-10-17T12:45:53.033Z,24.53
2022-10-17T12:49:04.744Z,24.46
2022-10-17T12:52:06.008Z,24.36
2022-10-17T12:54:53.540Z,24.30
2022-10-17T12:57:38.691Z,24.33
2022-10-17T13:00:29.439Z,24.39
2022-10-17T13:03:07.880Z,24.40
2022-10-17T13:05:42.321Z,24.42
2022-10-17T13:08:20.461Z,24.40
2022-10-17T13:10:55.183Z,24.36
2022-10-17T13:13:36.831Z,24.34
2022-10-17T13:16:28.363Z,24.28
2022-10-17T13:19:00.401Z,24.26
2022-10-17T13:21:33.195Z,24.25
2022-10-17T13:24:22.816Z,24.25
2022-10-17T13:26:54.362Z,24.25
2022-10-17T13:29:28.603Z,24.27
2022-10-17T13:32:04.011Z,24.29
2022-10-17T13:34:36.859Z,24.29
2022-10-17T13:37:12.369Z,24.31
2022-10-17T13:39:55.312Z,24.32
2022-10-17T13:42:30.486Z,24.30
2022-10-17T13:45:02.673Z,24.25
2022-10-17T13:47:40.396Z,24.20
2022-10-17T13:50:43.483Z,24.13
2022-10-17T13:53:26.541Z,24.06
2022-10-17T13:56:22.880Z,23.95
2022-10-17T13:58:53.662Z,23.85
2022-10-17T14:01:27.992Z,23.79
2022-10-17T14:04:09.023Z,23.73
2022-10-17T14:06:47.871Z,23.65
2022-10-17T14:09:26.274Z,23.57
2022-10-17T14:12:04.802Z,23.49
2022-10-17T14:14:58.034Z,23.40
2022-10-17T14:17:31.180Z,23.31
2022-10-17T14:20:34.113Z,23.25
2022-10-17T14:23:21.965Z,23.16
2022-10-17T14:25:49.055Z,23.08
2022-10-17T14:28:23.583Z,23.01
2022-10-17T14:31:10.673Z,22.95
2022-10-17T14:33:50.599Z,22.88
2022-10-17T14:36:34.338Z,22.81
2022-10-17T14:39:14.089Z,22.72
2022-10-17T14:41:47.234Z,22.63
2022-10-17T14:44:26.422Z,22.55
2022-10-17T14:47:18.267Z,22.47
2022-10-17T14:50:03.503Z,22.35
2022-10-17T14:52:40.949Z,22.25
2022-10-17T14:55:27.450Z,22.16
2022-10-17T14:57:59.076Z,22.05
2022-10-17T15:00:30.957Z,21.95
2022-10-17T15:03:02.584Z,21.84
2022-10-17T15:05:35.695Z,21.74
2022-10-17T15:08:12.251Z,21.64
2022-10-17T15:10:44.694Z,21.52
2022-10-17T15:13:27.640Z,21.41
2022-10-17T15:16:00.533Z,21.31
2022-10-17T15:18:32.626Z,21.23
2022-10-17T15:21:05.359Z,21.12
2022-10-17T15:23:38.239Z,21.03
2022-10-17T15:26:16.433Z,20.96
2022-10-17T15:28:49.582Z,20.87
2022-10-17T15:31:23.168Z,20.79
2022-10-17T15:33:55.086Z,20.69
2022-10-17T15:36:30.308Z,20.61
2022-10-17T15:39:02.940Z,20.53
2022-10-17T15:41:35.020Z,20.45
2022-10-17T15:44:07.127Z,20.38
2022-10-17T15:46:42.799Z,20.30
2022-10-17T15:49:17.356Z,20.21
2022-10-17T15:51:54.374Z,20.13
2022-10-17T15:54:27.135Z,20.05
2022-10-17T15:56:58.831Z,19.97
2022-10-17T15:59:34.752Z,19.89
2022-10-17T16:02:12.633Z,19.81
2022-10-17T16:04:44.935Z,19.73
2022-10-17T16:07:16.974Z,19.65
2022-10-17T16:09:48.852Z,19.58
2022-10-17T16:12:28.129Z,19.51
2022-10-17T16:14:59.855Z,19.44
2022-10-17T16:17:31.822Z,19.38
2022-10-17T16:20:03.529Z,19.31
2022-10-17T16:22:37.025Z,19.24
2022-10-17T16:25:19.607Z,19.17
2022-10-17T16:27:52.709Z,19.10
2022-10-17T16:30:32.830Z,19.03
2022-10-17T16:33:06.230Z,18.95
2022-10-17T16:35:37.942Z,18.89
2022-10-17T16:38:10.113Z,18.81
2022-10-17T16:40:49.947Z,18.75
2022-10-17T16:43:21.535Z,18.68
2022-10-17T16:45:53.197Z,18.62
2022-10-17T16:48:29.517Z,18.57
2022-10-17T16:51:10.403Z,18.49
2022-10-17T16:53:43.942Z,18.43
2022-10-17T16:56:18.073Z,18.36
2022-10-17T16:58:50.470Z,18.30
2022-10-17T17:01:24.524Z,18.22
2022-10-17T17:03:56.276Z,18.15
2022-10-17T17:06:29.770Z,18.08
2022-10-17T17:09:01.320Z,18.02
2022-10-17T17:11:38.060Z,17.95
2022-10-17T17:14:10.431Z,17.88
2022-10-17T17:16:43.434Z,17.81
2022-10-17T17:19:17.573Z,17.75
2022-10-17T17:21:51.012Z,17.69
2022-10-17T17:24:24.003Z,17.65
2022-10-17T17:26:57.047Z,17.61
2022-10-17T17:29:28.638Z,17.56
2022-10-17T17:32:00.192Z,17.52
2022-10-17T17:34:32.501Z,17.48
2022-10-17T17:37:04.258Z,17.45
2022-10-17T17:39:36.006Z,17.42
2022-10-17T17:42:07.588Z,17.39
2022-10-17T17:44:39.155Z,17.36
2022-10-17T17:47:10.809Z,17.35
2022-10-17T17:49:42.383Z,17.33
2022-10-17T17:52:14.004Z,17.31
2022-10-17T17:54:46.808Z,17.28
2022-10-17T17:57:18.427Z,17.25
2022-10-17T17:59:50.220Z,17.22
2022-10-17T18:02:21.768Z,17.20
2022-10-17T18:04:54.374Z,17.17
2022-10-17T18:07:26.375Z,17.16
2022-10-17T18:09:58.158Z,17.15
2022-10-17T18:12:31.297Z,17.14
2022-10-17T18:15:03.965Z,17.12
2022-10-17T18:17:35.833Z,17.10
2022-10-17T18:20:11.773Z,17.07
2022-10-17T18:22:43.372Z,17.04
2022-10-17T18:25:15.328Z,17.01
2022-10-17T18:27:48.520Z,16.97
2022-10-17T18:30:25.486Z,16.93
2022-10-17T18:32:58.949Z,16.89
2022-10-17T18:35:30.549Z,16.87
2022-10-17T18:38:02.164Z,16.83
2022-10-17T18:40:33.759Z,16.79
2022-10-17T18:43:06.311Z,16.75
2022-10-17T18:45:38.701Z,16.70
2022-10-17T18:48:10.789Z,16.66
2022-10-17T18:50:42.595Z,16.63
2022-10-17T18:53:14.150Z,16.59
2022-10-17T18:58:23.488Z,16.49
2022-10-17T19:00:55.079Z,16.45
2022-10-17T19:03:26.608Z,16.41
2022-10-17T19:06:01.204Z,16.37
2022-10-17T19:08:32.934Z,16.34
2022-10-17T19:11:09.911Z,16.31
2022-10-17T19:13:42.609Z,16.27
2022-10-17T19:16:16.593Z,16.23
2022-10-17T19:18:52.294Z,16.14
2022-10-17T19:21:24.227Z,16.04
2022-10-17T19:23:57.444Z,15.97
2022-10-17T19:26:32.346Z,15.93
2022-10-17T19:29:04.571Z,15.87
2022-10-17T19:31:37.194Z,15.84
2022-10-17T19:34:08.735Z,15.82
2022-10-17T19:36:40.927Z,15.79
2022-10-17T19:39:15.104Z,15.77
2022-10-17T19:41:48.707Z,15.73
2022-10-17T19:44:20.493Z,15.70
2022-10-17T19:46:52.105Z,15.67
2022-10-17T19:49:23.629Z,15.62
2022-10-17T19:51:55.200Z,15.58
2022-10-17T19:54:26.741Z,15.53
2022-10-17T19:56:58.475Z,15.49
2022-10-17T19:59:30.077Z,15.47
2022-10-17T20:02:01.832Z,15.44
2022-10-17T20:04:33.500Z,15.41
2022-10-17T20:07:05.063Z,15.40
2022-10-17T20:09:36.790Z,15.39
2022-10-17T20:12:08.978Z,15.37
2022-10-17T20:14:41.201Z,15.35
2022-10-17T20:17:12.858Z,15.33
2022-10-17T20:19:44.726Z,15.30
2022-10-17T20:22:16.445Z,15.28
2022-10-17T20:24:48.210Z,15.23
2022-10-17T20:27:22.165Z,15.21
2022-10-17T20:29:55.946Z,15.19
2022-10-17T20:32:27.705Z,15.18
2022-10-17T20:34:59.622Z,15.15
2022-10-17T20:37:36.392Z,15.11
2022-10-17T20:40:34.700Z,15.07
2022-10-17T20:43:09.395Z,14.98
2022-10-17T20:45:50.782Z,14.94
2022-10-17T20:48:23.577Z,14.92
2022-10-17T20:50:55.995Z,14.91
2022-10-17T20:53:42.804Z,14.91
2022-10-17T20:56:22.142Z,14.91
2022-10-17T20:58:55.723Z,14.89
2022-10-17T21:01:29.768Z,14.89
2022-10-17T21:04:21.296Z,14.88
2022-10-17T21:06:53.670Z,14.88
2022-10-17T21:09:25.277Z,14.87
2022-10-17T21:11:57.944Z,14.87
2022-10-17T21:14:29.558Z,14.84
2022-10-17T21:17:04.932Z,14.81
2022-10-17T21:19:36.981Z,14.79
2022-10-17T21:22:09.357Z,14.76
2022-10-17T21:24:41.179Z,14.74
2022-10-17T21:27:17.671Z,14.73
2022-10-17T21:29:50.096Z,14.72
2022-10-17T21:32:47.298Z,14.72
2022-10-17T21:35:14.051Z,14.70
2022-10-17T21:37:45.878Z,14.68
2022-10-17T21:40:17.414Z,14.67
2022-10-17T21:42:49.879Z,14.65
2022-10-17T21:45:25.856Z,14.63
2022-10-17T21:48:13.598Z,14.59
2022-10-17T21:50:45.375Z,14.58
2022-10-17T21:53:17.755Z,14.57
2022-10-17T21:55:49.336Z,14.55
2022-10-17T21:58:21.224Z,14.55
2022-10-17T22:00:52.783Z,14.53
2022-10-17T22:03:26.898Z,14.52
2022-10-17T22:06:07.057Z,14.51
2022-10-17T22:08:51.113Z,14.48
2022-10-17T22:11:24.862Z,14.45
2022-10-17T22:13:59.637Z,14.42
2022-10-17T22:16:31.357Z,14.41
2022-10-17T22:19:06.421Z,14.36
2022-10-17T22:21:38.970Z,14.26
2022-10-17T22:24:14.139Z,14.21
2022-10-17T22:26:47.451Z,14.19
2022-10-17T22:29:19.858Z,14.18
2022-10-17T22:31:51.403Z,14.17
2022-10-17T22:34:24.535Z,14.15
2022-10-17T22:36:56.108Z,14.14
2022-10-17T22:39:27.729Z,14.09
2022-10-17T22:41:59.287Z,14.04
2022-10-17T22:44:31.706Z,14.02
2022-10-17T22:47:03.243Z,14.01
2022-10-17T22:49:35.731Z,14.01
2022-10-17T22:52:07.597Z,13.98
2022-10-17T22:54:40.007Z,13.96
2022-10-17T22:57:11.547Z,13.89
2022-10-17T22:59:43.162Z,13.83
2022-10-17T23:02:14.857Z,13.82
2022-10-17T23:04:48.367Z,13.80
2022-10-17T23:07:19.889Z,13.78
2022-10-17T23:09:51.601Z,13.77
2022-10-17T23:12:23.453Z,13.75
2022-10-17T23:14:56.669Z,13.74
2022-10-17T23:17:28.185Z,13.70
2022-10-17T23:19:59.823Z,13.66
2022-10-17T23:22:31.505Z,13.62
2022-10-17T23:25:05.081Z,13.59
2022-10-17T23:27:38.114Z,13.57
2022-10-17T23:30:21.561Z,13.56
2022-10-17T23:32:54.281Z,13.55
2022-10-17T23:35:25.926Z,13.50
2022-10-17T23:37:57.555Z,13.40
2022-10-17T23:42:21.285Z,13.33
2022-10-17T23:44:53.302Z,13.29
2022-10-17T23:47:24.970Z,13.30
2022-10-17T23:49:56.512Z,13.32
2022-10-17T23:52:30.884Z,13.32
2022-10-17T23:55:02.492Z,13.30
2022-10-17T23:57:34.491Z,13.27
